• Join FlightAware (Why Join?)
  • Login
  • US Flag 
04:13AM EDT


 

Airport Tracker/Info


-or-


 

Live Flight TrackerFlight Track Log ✈ AAL1491 ✈ 15-May-2013 ✈ KDFW - KSFO

Flight Track Log - Related Links

Times and Time Zones

All times are in EDT time to prevent confusion due to time zone crossing. See the AAL1491 flight status page for this flight to view local times or setup timezone preferences in your user account.

Time Position Orientation Groundspeed Altitude Reporting Facility
EDT Latitude Longitude Course Direction KTS MPH feet Rate Location/Type
03:44PM 32.8680 -97.0520 187° South 149 171 2,400  Level FlightAware
03:45PM 32.8430 -97.0580 191° South 187 215 2,900 1,200 Climbing FlightAware
03:45PM 32.8300 -97.0610 191° South 207 238 3,300 1,920 Climbing FlightAware
03:45PM 32.8030 -97.0670 191° South 228 262 4,200 2,400 Climbing FlightAware
03:46PM 32.7890 -97.0700 190° South 228 262 4,900 2,520 Climbing FlightAware
03:46PM 32.7550 -97.0760 188° South 244 281 6,100 2,400 Climbing FlightAware
03:46PM 32.7320 -97.0810 190° South 254 292 6,900 2,400 Climbing FlightAware
03:47PM 32.7230 -97.0880 213° Southwest 259 298 7,300 2,520 Climbing FlightAware
03:47PM 32.7020 -97.1130 225° Southwest 260 299 8,400 2,760 Climbing FlightAware
03:47PM 32.6800 -97.1400 226° Southwest 267 307 9,600 1,740 Climbing FlightAware
03:48PM 32.6600 -97.1740 235° Southwest 268 308 10,000 360 Climbing FlightAware
03:48PM 32.6460 -97.2120 246° West 266 306 10,000  Level FlightAware
03:49PM 32.6360 -97.2540 254° West 276 318 10,000  Level FlightAware
03:49PM 32.6460 -97.2880 289° West 288 331 10,000  Level FlightAware
03:50PM 32.6620 -97.3060 317° Northwest 298 343 10,000 420 Level FlightAware
03:50PM 32.7030 -97.3460 321° Northwest 304 350 10,400 1,260 Climbing FlightAware
03:51PM 32.7570 -97.3990 320° Northwest 337 388 11,800 2,160 Climbing FlightAware
03:52PM 32.8110 -97.4520 320° Northwest 348 400 13,700 2,760 Climbing FlightAware
03:52PM 32.8550 -97.4940 321° Northwest 352 405 15,500 2,820 Climbing FlightAware
03:53PM 32.9100 -97.5490 320° Northwest 358 412 17,500 2,460 Climbing FlightAware
03:54PM 32.9570 -97.6100 313° West 362 417 19,000 2,100 Climbing FlightAware
03:55PM 32.9780 -97.6930 287° West 366 421 20,500 2,160 Climbing FlightAware
03:55PM 32.9900 -97.7730 280° West 370 426 22,100 1,500 Climbing FlightAware
03:56PM 33.0000 -97.8380 280° West 370 426 22,400 1,320 Climbing FlightAware
03:57PM 32.9930 -97.8400 193° South 377 434 24,000 1,920 Climbing FlightAware
03:57PM 32.9970 -98.0230 272° West 383 441 25,200 1,860 Climbing FlightAware
03:58PM 32.9920 -97.8410 92° East 383 441 26,500 2,160 Climbing FlightAware
03:59PM 33.0050 -98.1870 273° West 396 456 28,100 1,560 Climbing FlightAware
03:59PM 33.0320 -98.2790 289° West 401 461 28,600 300 Climbing FlightAware
04:00PM 33.0570 -98.3680 289° West 401 461 28,600  Level FlightAware
04:01PM 33.0780 -98.4390 289° West 401 461 28,600  Level FlightAware
04:01PM 33.0980 -98.5100 289° West 401 461 28,600 2,580 Level FlightAware
04:02PM 33.2150 -98.6300 319° Northwest 427 491 32,300 2,940 Climbing FlightAware
04:03PM 33.2830 -98.7180 313° West 432 497 33,300 600 Climbing FlightAware
04:04PM 33.3370 -98.7950 310° West 432 497 33,300  Level FlightAware
04:05PM 33.3810 -98.8580 310° West 432 497 33,300  Level FlightAware
04:05PM 33.4250 -98.9200 310° West 432 497 33,300  Level FlightAware
04:06PM 33.4680 -98.9830 309° West 432 497 33,300  Level FlightAware
04:07PM 33.5120 -99.0450 310° West 432 497 33,300  Level FlightAware
04:07PM 33.5560 -99.1070 310° West 432 497 33,300  Level FlightAware
04:08PM 33.6100 -99.1860 309° West 432 497 33,300  Level FlightAware
04:09PM 33.6540 -99.2480 310° West 432 497 33,300  Level FlightAware
04:09PM 33.6980 -99.3110 310° West 432 497 33,300  Level FlightAware
04:10PM 33.7410 -99.3730 310° West 432 497 33,300  Level FlightAware
04:11PM 33.7850 -99.4360 310° West 432 497 33,300  Level FlightAware
04:12PM 33.8400 -99.5140 310° West 432 497 33,300  Level FlightAware
04:12PM 33.8830 -99.5770 309° West 432 497 33,300 2,100 Level FlightAware
04:13PM 34.0125 -99.8003 309° West 425 489 36,000 3,120 Climbing Albuquerque Center
04:13PM 34.0431 -99.8472 308° West 434 499 36,000  Level Fort Worth Center
04:15PM 34.1736 -100.0461 308° West 423 487 36,000  Level Albuquerque Center
04:16PM 34.2425 -100.1494 309° West 423 487 36,000  Level Albuquerque Center
04:17PM 34.3164 -100.2608 309° West 424 488 36,000  Level Albuquerque Center
04:18PM 34.3886 -100.3725 308° West 423 487 36,000  Level Albuquerque Center
04:19PM 34.4608 -100.4839 308° West 422 486 36,000  Level Albuquerque Center
04:20PM 34.5475 -100.6186 308° West 421 484 36,000  Level Albuquerque Center
04:21PM 34.6194 -100.7303 308° West 421 484 36,000  Level Albuquerque Center
04:22PM 34.6867 -100.8456 305° West 420 483 36,000  Level Albuquerque Center
04:23PM 34.7278 -100.9778 291° West 418 481 36,000  Level Albuquerque Center
04:24PM 34.7697 -101.1108 291° West 421 484 36,000  Level Albuquerque Center
04:25PM 34.8117 -101.2442 291° West 422 486 36,000  Level Albuquerque Center
04:26PM 34.8542 -101.3772 291° West 421 484 36,000  Level Albuquerque Center
04:27PM 34.9047 -101.5386 291° West 422 486 36,000  Level Albuquerque Center
04:28PM 34.9469 -101.6753 291° West 425 489 36,100 360 Climbing Albuquerque Center
04:29PM 34.9917 -101.8194 291° West 434 499 36,800 720 Climbing Albuquerque Center
04:30PM 35.0383 -101.9594 292° West 440 506 37,600 540 Climbing Albuquerque Center
04:31PM 35.0775 -102.0964 289° West 437 503 38,000 180 Climbing Albuquerque Center
04:32PM 35.1203 -102.2350 291° West 435 501 38,000  Level Albuquerque Center
04:33PM 35.1633 -102.3739 291° West 436 502 38,000  Level Albuquerque Center
04:34PM 35.2056 -102.5119 291° West 434 499 38,000  Level Albuquerque Center
04:35PM 35.2547 -102.6775 290° West 433 498 38,000  Level Albuquerque Center
04:37PM 35.2697 -102.8269 277° West 442 509 38,000  Level Albuquerque Center
04:38PM 35.2856 -102.9800 277° West 439 505 38,000  Level Albuquerque Center
04:39PM 35.3006 -103.1303 277° West 441 507 38,000  Level Albuquerque Center
04:40PM 35.3111 -103.2811 275° West 442 509 38,000  Level Albuquerque Center
04:41PM 35.3194 -103.4317 274° West 441 507 38,000  Level Albuquerque Center
04:42PM 35.3278 -103.5825 274° West 441 507 38,000  Level Albuquerque Center
04:43PM 35.3361 -103.7331 274° West 440 506 38,000  Level Albuquerque Center
04:44PM 35.3450 -103.8819 274° West 439 505 38,000  Level Albuquerque Center
04:45PM 35.3939 -104.0414 291° West 431 496 38,000  Level Albuquerque Center
04:46PM 35.4378 -104.1761 292° West 429 494 38,000  Level Albuquerque Center
04:47PM 35.4817 -104.3119 292° West 430 495 38,000  Level Albuquerque Center
04:48PM 35.5231 -104.4461 291° West 423 487 38,000  Level Albuquerque Center
04:49PM 35.5653 -104.5803 291° West 419 482 38,000  Level Albuquerque Center
04:50PM 35.6139 -104.7356 291° West 416 479 38,000  Level Albuquerque Center
04:51PM 35.6550 -104.8692 291° West 415 478 38,000  Level Albuquerque Center
04:52PM 35.6972 -105.0033 291° West 416 479 38,000  Level Albuquerque Center
04:58PM 35.9460 -105.8140 291° West 432 497 38,000  Level FlightAware
04:59PM 35.9690 -105.8930 290° West 432 497 38,000  Level FlightAware
04:59PM 36.0040 -106.0050 291° West 423 487 38,000  Level FlightAware
05:00PM 36.0380 -106.1200 290° West 424 488 38,000  Level FlightAware
05:01PM 36.0690 -106.2240 290° West 423 487 38,000  Level FlightAware
05:02PM 36.0920 -106.3010 290° West 423 487 38,000  Level FlightAware
05:03PM 36.1320 -106.4350 290° West 426 490 38,000  Level FlightAware
05:03PM 36.1600 -106.5320 290° West 426 490 38,000  Level FlightAware
05:04PM 36.1830 -106.6100 290° West 426 490 38,000  Level FlightAware
05:05PM 36.2230 -106.7440 290° West 439 505 38,000  Level FlightAware
05:05PM 36.2490 -106.8360 289° West 440 506 38,000  Level FlightAware
05:06PM 36.2710 -106.9170 289° West 440 506 38,000  Level FlightAware
05:07PM 36.3000 -107.0190 289° West 440 506 38,000  Level FlightAware
05:08PM 36.3400 -107.1480 291° West 444 511 38,000  Level FlightAware
05:08PM 36.3620 -107.2280 289° West 444 511 38,000  Level FlightAware
05:09PM 36.3910 -107.3300 289° West 444 511 38,000  Level FlightAware
05:10PM 36.4140 -107.4130 289° West 444 511 38,000  Level FlightAware
05:10PM 36.4360 -107.4950 288° West 444 511 38,000  Level FlightAware
05:11PM 36.4590 -107.5770 289° West 444 511 38,000  Level FlightAware
05:12PM 36.4820 -107.6590 289° West 444 511 38,000  Level FlightAware
05:12PM 36.5040 -107.7410 288° West 444 511 38,000  Level FlightAware
05:14PM 36.5910 -108.0340 290° West 432 497 38,000  Level FlightAware
05:14PM 36.6190 -108.1320 290° West 430 495 38,000  Level FlightAware
05:15PM 36.6520 -108.2500 289° West 429 494 38,000  Level FlightAware
05:16PM 36.6790 -108.3490 289° West 427 491 38,000  Level FlightAware
05:17PM 36.7020 -108.4340 289° West 427 491 38,000  Level FlightAware
05:17PM 36.7300 -108.5370 289° West 427 491 38,000  Level FlightAware
05:18PM 36.7560 -108.6300 289° West 427 491 38,000  Level FlightAware
05:19PM 36.7840 -108.7330 289° West 427 491 38,000  Level FlightAware
05:19PM 36.8040 -108.8060 289° West 427 491 38,000  Level FlightAware
05:20PM 36.8290 -108.9040 288° West 427 491 38,000  Level FlightAware
05:21PM 36.8750 -109.0720 289° West 423 487 38,000  Level FlightAware
05:22PM 36.9030 -109.1730 289° West 423 487 38,000  Level FlightAware
05:23PM 36.9330 -109.2890 288° West 423 487 38,000  Level FlightAware
05:24PM 36.9640 -109.4060 288° West 423 487 38,000  Level FlightAware
05:24PM 36.9840 -109.4850 288° West 423 487 38,000  Level FlightAware
05:25PM 37.0100 -109.5840 288° West 423 487 38,000  Level FlightAware
05:26PM 37.0310 -109.6630 288° West 423 487 38,000  Level FlightAware
05:26PM 37.0510 -109.7420 288° West 423 487 38,000  Level FlightAware
05:27PM 37.0720 -109.8220 288° West 423 487 38,000  Level FlightAware
05:28PM 37.0920 -109.9010 288° West 423 487 38,000  Level FlightAware
05:28PM 37.1130 -109.9800 288° West 423 487 38,000  Level FlightAware
05:29PM 37.1390 -110.0800 288° West 423 487 38,000  Level FlightAware
05:30PM 37.1590 -110.1590 288° West 423 487 38,000  Level FlightAware
05:31PM 37.1800 -110.2380 288° West 423 487 38,000  Level FlightAware
05:31PM 37.2000 -110.3180 287° West 423 487 38,000  Level FlightAware
05:32PM 37.2210 -110.3970 288° West 423 487 38,000  Level FlightAware
05:33PM 37.2470 -110.4970 288° West 423 487 38,000  Level FlightAware
05:33PM 37.3136 -110.7608 288° West 422 486 38,000  Level Denver Center
05:34PM 37.3489 -110.9011 288° West 422 486 38,000  Level Denver Center
05:35PM 37.3836 -111.0417 287° West 422 486 38,000  Level Denver Center
05:37PM 37.4181 -111.1817 287° West 420 483 38,000  Level Denver Center
05:38PM 37.4664 -111.3764 287° West 418 481 38,000  Level Denver Center
05:39PM 37.5003 -111.5172 287° West 420 483 38,000  Level Denver Center
05:40PM 37.5342 -111.6558 287° West 416 479 38,000  Level Denver Center
05:41PM 37.5681 -111.7939 287° West 414 476 38,000  Level Denver Center
05:42PM 37.6008 -111.9314 287° West 412 474 38,000  Level Salt Lake Center
05:43PM 37.6339 -112.0697 287° West 413 475 38,000  Level Salt Lake Center
05:44PM 37.6672 -112.2056 287° West 409 471 38,000  Level Salt Lake Center
05:45PM 37.6997 -112.3392 287° West 403 464 38,000  Level Salt Lake Center
05:46PM 37.7369 -112.4714 290° West 402 463 38,000  Level Salt Lake Center
05:47PM 37.7733 -112.6019 289° West 400 460 38,000  Level Salt Lake Center
05:48PM 37.8164 -112.7575 289° West 398 458 38,000  Level Salt Lake Center
05:49PM 37.8514 -112.8878 289° West 397 457 38,000  Level Salt Lake Center
05:50PM 37.8867 -113.0189 289° West 397 457 38,000  Level Salt Lake Center
05:51PM 37.9222 -113.1511 289° West 400 460 38,000  Level Salt Lake Center
05:52PM 37.9578 -113.2842 289° West 403 464 38,000  Level Salt Lake Center
05:53PM 38.0006 -113.4439 289° West 403 464 38,000  Level Salt Lake Center
05:54PM 38.0367 -113.5786 289° West 404 465 38,000  Level Salt Lake Center
05:55PM 38.0722 -113.7158 288° West 410 472 38,000  Level Salt Lake Center
05:56PM 38.1083 -113.8525 289° West 411 473 38,000  Level Salt Lake Center
05:57PM 38.1456 -113.9892 289° West 410 472 38,000  Level Salt Lake Center
05:58PM 38.1814 -114.1275 288° West 412 474 38,000  Level Salt Lake Center
05:59PM 38.2244 -114.2922 288° West 412 474 38,000  Level Salt Lake Center
06:00PM 38.2492 -114.4319 283° West 408 470 38,000  Level Salt Lake Center
06:01PM 38.2389 -114.5797 265° West 419 482 38,000  Level Salt Lake Center
06:02PM 38.2294 -114.7261 265° West 418 481 38,000  Level Salt Lake Center
06:03PM 38.2186 -114.8725 265° West 418 481 38,000  Level Salt Lake Center
06:04PM 38.2072 -115.0194 264° West 419 482 38,000  Level Salt Lake Center
06:05PM 38.2003 -115.1644 267° West 414 476 38,000  Level Salt Lake Center
06:06PM 38.1922 -115.3233 266° West 412 474 38,000  Level Salt Lake Center
06:07PM 38.1792 -115.4683 264° West 413 475 38,000  Level Salt Lake Center
06:08PM 38.1692 -115.6122 265° West 410 472 38,000  Level Salt Lake Center
06:10PM 38.1589 -115.7561 265° West 409 471 38,000  Level Salt Lake Center
06:11PM 38.1497 -115.9283 266° West 408 470 38,000  Level Salt Lake Center
06:12PM 38.1392 -116.0711 265° West 407 468 38,000  Level Salt Lake Center
06:13PM 38.1292 -116.2147 265° West 408 470 38,000  Level Salt Lake Center
06:14PM 38.1178 -116.3586 264° West 408 470 38,000  Level Salt Lake Center
06:14PM 38.1092 -116.4719 265° West 406 467 38,000  Level Oakland Center
06:15PM 38.0981 -116.6139 264° West 403 464 38,000  Level Oakland Center
06:17PM 38.0872 -116.7553 264° West 402 463 38,000  Level Oakland Center
06:18PM 38.0756 -116.8978 264° West 403 464 38,000  Level Oakland Center
06:19PM 38.0647 -117.0406 265° West 402 463 38,000  Level Oakland Center
06:20PM 38.0517 -117.1850 263° West 401 461 38,000  Level Oakland Center
06:21PM 38.0397 -117.3331 264° West 408 470 38,000  Level Oakland Center
06:22PM 38.0286 -117.4753 264° West 404 465 38,000  Level Oakland Center
06:23PM 38.0139 -117.6467 264° West 405 466 38,000  Level Oakland Center
06:24PM 38.0006 -117.7900 263° West 407 468 38,000  Level Oakland Center
06:25PM 37.9861 -117.9322 263° West 408 470 38,000  Level Oakland Center
06:31PM 37.8950 -118.7650 263° West 406 467 38,000  Level FlightAware
06:31PM 37.8850 -118.8450 261° West 406 467 38,000  Level FlightAware
06:32PM 37.8750 -118.9250 261° West 406 467 38,000 -900 Level FlightAware
06:33PM 37.8620 -119.0610 263° West 395 455 36,800 -1,320 Descending FlightAware
06:33PM 37.8510 -119.1580 262° West 396 456 36,100 -600 Descending FlightAware
06:34PM 37.8390 -119.2550 261° West 409 471 36,000 -180 Descending FlightAware
06:35PM 37.8290 -119.3410 262° West 410 472 35,900 -660 Descending FlightAware
06:35PM 37.8150 -119.4580 261° West 411 473 35,100 -1,080 Descending FlightAware
06:36PM 37.8040 -119.5530 262° West 414 476 34,400 -1,020 Descending FlightAware
06:37PM 37.7920 -119.6590 262° West 416 479 33,700 -960 Descending FlightAware
06:38PM 37.7810 -119.7490 261° West 414 476 33,100 -1,020 Descending FlightAware
06:38PM 37.7680 -119.8500 261° West 404 465 32,400 -1,080 Descending FlightAware
06:39PM 37.7550 -119.9570 261° West 395 455 31,600 -1,080 Descending FlightAware
06:40PM 37.7440 -120.0450 261° West 389 448 30,900 -1,020 Descending FlightAware
06:40PM 37.7320 -120.1440 261° West 386 444 30,200 -660 Descending FlightAware
06:41PM 37.7210 -120.2340 261° West 384 442 30,000 -180 Descending FlightAware
06:42PM 37.7080 -120.3360 261° West 382 440 30,000 -480 Level FlightAware
06:42PM 37.6970 -120.4230 261° West 379 436 29,400 -1,320 Descending FlightAware
06:43PM 37.6860 -120.5090 261° West 371 427 28,300 -1,800 Descending FlightAware
06:44PM 37.6740 -120.6020 261° West 361 415 26,900 -1,920 Descending FlightAware
06:45PM 37.6630 -120.6840 260° West 352 405 25,600 -1,920 Descending FlightAware
06:45PM 37.6510 -120.7750 261° West 342 394 24,200 -1,860 Descending FlightAware
06:46PM 37.6410 -120.8540 261° West 338 389 23,000 -1,800 Descending FlightAware
06:47PM 37.6310 -120.9320 261° West 342 394 21,800 -1,800 Descending FlightAware
06:47PM 37.6200 -121.0180 261° West 333 383 20,500 -1,920 Descending FlightAware
06:48PM 37.6130 -121.0920 263° West 328 377 19,100 -2,100 Descending FlightAware
06:49PM 37.6040 -121.1680 262° West 318 366 17,700 -1,980 Descending FlightAware
06:49PM 37.5940 -121.2500 261° West 314 361 16,300 -1,860 Descending FlightAware
06:50PM 37.5850 -121.3230 261° West 317 365 15,100 -1,800 Descending FlightAware
06:51PM 37.5770 -121.4020 263° West 311 358 13,800 -1,740 Descending FlightAware
06:52PM 37.5690 -121.4740 262° West 298 343 12,700 -1,740 Descending FlightAware
06:52PM 37.5590 -121.5520 261° West 293 337 11,400 -1,380 Descending FlightAware
06:53PM 37.5510 -121.6180 261° West 286 329 10,800 -540 Descending FlightAware
06:53PM 37.5570 -121.6630 280° West 262 302 10,800 60 Level FlightAware
06:54PM 37.5790 -121.7130 299° West 238 274 10,900 -240 Climbing FlightAware
06:55PM 37.6000 -121.7620 298° West 233 268 10,500 -960 Descending FlightAware
06:55PM 37.6150 -121.7980 298° West 234 269 9,800 -1,440 Descending FlightAware
06:56PM 37.6210 -121.8240 286° West 231 266 9,300 -1,380 Descending FlightAware
06:56PM 37.6140 -121.8470 249° West 232 267 8,900 -900 Descending FlightAware
06:56PM 37.5990 -121.8580 210° Southwest 235 270 8,800 -180 Descending FlightAware
06:57PM 37.5680 -121.8660 192° South 237 273 8,800  Level FlightAware
06:57PM 37.5440 -121.8730 193° South 237 273 8,800 -660 Level FlightAware
06:58PM 37.5080 -121.8800 189° South 231 266 8,200 -900 Descending FlightAware
06:58PM 37.4850 -121.9040 220° Southwest 203 234 7,900 -360 Descending FlightAware
06:59PM 37.4690 -121.9230 223° Southwest 194 223 7,900  Level FlightAware
06:59PM 37.4640 -121.9400 250° West 191 220 7,900 -600 Level FlightAware
06:59PM 37.4720 -121.9630 294° West 196 226 7,500 -1,440 Descending FlightAware
07:00PM 37.4920 -121.9850 319° Northwest 189 217 6,600 -1,800 Descending FlightAware
07:00PM 37.5090 -122.0100 311° West 181 208 5,700 -1,560 Descending FlightAware
07:01PM 37.5170 -122.0350 292° West 179 206 5,200 -1,140 Descending FlightAware
07:01PM 37.5260 -122.0650 291° West 183 211 4,700 -1,020 Descending FlightAware
07:02PM 37.5350 -122.0940 291° West 176 203 4,200 -1,020 Descending FlightAware
07:02PM 37.5420 -122.1170 291° West 172 198 3,800 -1,080 Descending FlightAware
07:02PM 37.5460 -122.1320 289° West 171 197 3,500 -1,080 Descending FlightAware
07:03PM 37.5530 -122.1540 292° West 168 193 3,100 -1,020 Descending FlightAware
07:03PM 37.5620 -122.1820 292° West 172 198 2,600 -1,080 Descending FlightAware
07:03PM 37.5660 -122.1970 289° West 169 194 2,300 -900 Descending FlightAware
07:04PM 37.5720 -122.2170 291° West 150 173 2,000 -780 Descending FlightAware
07:04PM 37.5790 -122.2390 292° West 128 147 1,600 -660 Descending FlightAware
07:05PM 37.5820 -122.2580 281° West 125 144 1,400 -480 Descending FlightAware
07:05PM 37.5850 -122.2800 280° West 126 145 1,200 -540 Descending FlightAware
07:06PM 37.5900 -122.3010 287° West 133 153 900 -720 Descending FlightAware
07:06PM 37.5940 -122.3110 297° West 133 153 700 -780 Descending FlightAware
07:06PM 37.6020 -122.3290 299° West 130 150 400 -660 Descending FlightAware
07:07PM 37.6100 -122.3490 297° West 128 147 100 -600 Descending FlightAware
07:07PM 37.6140 -122.3580 299° West 133 153 -420 Descending FlightAware